sensor_id;sensor_type;location;lat;lon;timestamp;pressure;altitude;pressure_sealevel;temperature;humidity
71457;BME280;59263;48.160;11.752;2023-09-12T00:00:39;95672.41;;;18.55;100.00
71457;BME280;59263;48.160;11.752;2023-09-12T00:03:05;95684.91;;;18.60;100.00
71457;BME280;59263;48.160;11.752;2023-09-12T00:05:30;95676.44;;;18.65;100.00
71457;BME280;59263;48.160;11.752;2023-09-12T00:07:55;95674.25;;;18.61;100.00
71457;BME280;59263;48.160;11.752;2023-09-12T00:10:21;95672.78;;;18.52;100.00
71457;BME280;59263;48.160;11.752;2023-09-12T00:12:46;95664.34;;;18.57;100.00
71457;BME280;59263;48.160;11.752;2023-09-12T00:15:11;95667.56;;;18.52;100.00
71457;BME280;59263;48.160;11.752;2023-09-12T00:17:37;95678.94;;;18.31;100.00
71457;BME280;59263;48.160;11.752;2023-09-12T00:20:03;95672.00;;;18.10;100.00
71457;BME280;59263;48.160;11.752;2023-09-12T00:22:31;95683.44;;;18.03;100.00
71457;BME280;59263;48.160;11.752;2023-09-12T00:24:56;95676.63;;;18.08;100.00
71457;BME280;59263;48.160;11.752;2023-09-12T00:27:21;95656.13;;;18.19;100.00
71457;BME280;59263;48.160;11.752;2023-09-12T00:29:47;95653.47;;;18.12;100.00
71457;BME280;59263;48.160;11.752;2023-09-12T00:32:12;95659.28;;;18.07;100.00
71457;BME280;59263;48.160;11.752;2023-09-12T00:34:37;95656.16;;;17.90;100.00
71457;BME280;59263;48.160;11.752;2023-09-12T00:37:03;95666.38;;;17.79;100.00
71457;BME280;59263;48.160;11.752;2023-09-12T00:39:28;95654.94;;;17.58;100.00
71457;BME280;59263;48.160;11.752;2023-09-12T00:41:53;95666.75;;;17.76;100.00
71457;BME280;59263;48.160;11.752;2023-09-12T00:44:19;95645.75;;;17.69;100.00
71457;BME280;59263;48.160;11.752;2023-09-12T00:46:45;95639.31;;;17.72;100.00
71457;BME280;59263;48.160;11.752;2023-09-12T00:49:13;95646.66;;;17.83;100.00
71457;BME280;59263;48.160;11.752;2023-09-12T00:51:39;95646.66;;;17.83;100.00
71457;BME280;59263;48.160;11.752;2023-09-12T00:54:04;95641.81;;;17.80;100.00
71457;BME280;59263;48.160;11.752;2023-09-12T00:56:30;95643.47;;;17.87;100.00
71457;BME280;59263;48.160;11.752;2023-09-12T00:58:56;95649.91;;;17.85;100.00
71457;BME280;59263;48.160;11.752;2023-09-12T01:01:22;95647.28;;;17.85;100.00
71457;BME280;59263;48.160;11.752;2023-09-12T01:03:49;95636.66;;;17.93;100.00
71457;BME280;59263;48.160;11.752;2023-09-12T01:06:15;95638.38;;;17.79;100.00
71457;BME280;59263;48.160;11.752;2023-09-12T01:08:44;95630.16;;;17.54;100.00
71457;BME280;59263;48.160;11.752;2023-09-12T01:11:10;95641.56;;;17.47;100.00
71457;BME280;59263;48.160;11.752;2023-09-12T01:13:36;95630.28;;;17.46;100.00
71457;BME280;59263;48.160;11.752;2023-09-12T01:16:01;95650.81;;;17.49;100.00
71457;BME280;59263;48.160;11.752;2023-09-12T01:18:27;95640.38;;;17.49;100.00
71457;BME280;59263;48.160;11.752;2023-09-12T01:24:05;95652.13;;;17.32;100.00
71457;BME280;59263;48.160;11.752;2023-09-12T01:29:39;95649.19;;;17.20;100.00
71457;BME280;59263;48.160;11.752;2023-09-12T01:32:05;95653.03;;;17.24;100.00
71457;BME280;59263;48.160;11.752;2023-09-12T01:34:31;95653.25;;;17.01;100.00
71457;BME280;59263;48.160;11.752;2023-09-12T01:36:56;95633.47;;;16.92;100.00
71457;BME280;59263;48.160;11.752;2023-09-12T01:39:22;95653.81;;;16.97;100.00
71457;BME280;59263;48.160;11.752;2023-09-12T01:41:47;95660.91;;;17.03;100.00
71457;BME280;59263;48.160;11.752;2023-09-12T01:44:14;95654.63;;;16.97;100.00
71457;BME280;59263;48.160;11.752;2023-09-12T01:46:41;95667.06;;;16.95;100.00
71457;BME280;59263;48.160;11.752;2023-09-12T01:49:07;95658.59;;;16.93;100.00
71457;BME280;59263;48.160;11.752;2023-09-12T01:51:34;95649.50;;;16.89;100.00
71457;BME280;59263;48.160;11.752;2023-09-12T01:54:00;95657.13;;;16.84;100.00
71457;BME280;59263;48.160;11.752;2023-09-12T01:56:26;95662.63;;;16.74;100.00
71457;BME280;59263;48.160;11.752;2023-09-12T01:58:51;95662.88;;;16.64;100.00
71457;BME280;59263;48.160;11.752;2023-09-12T02:01:16;95655.53;;;16.53;100.00
71457;BME280;59263;48.160;11.752;2023-09-12T02:03:42;95652.38;;;16.58;100.00
71457;BME280;59263;48.160;11.752;2023-09-12T02:06:07;95665.69;;;16.78;100.00
71457;BME280;59263;48.160;11.752;2023-09-12T02:08:32;95657.88;;;16.63;100.00
71457;BME280;59263;48.160;11.752;2023-09-12T02:10:58;95668.56;;;16.68;100.00
71457;BME280;59263;48.160;11.752;2023-09-12T02:13:23;95665.69;;;16.63;100.00
71457;BME280;59263;48.160;11.752;2023-09-12T02:15:48;95674.91;;;16.74;100.00
71457;BME280;59263;48.160;11.752;2023-09-12T02:18:13;95671.00;;;16.69;100.00
71457;BME280;59263;48.160;11.752;2023-09-12T02:20:40;95657.66;;;16.64;100.00
71457;BME280;59263;48.160;11.752;2023-09-12T02:23:06;95670.56;;;16.66;100.00
71457;BME280;59263;48.160;11.752;2023-09-12T02:25:32;95683.78;;;16.64;100.00
71457;BME280;59263;48.160;11.752;2023-09-12T02:27:57;95689.25;;;16.48;100.00
71457;BME280;59263;48.160;11.752;2023-09-12T02:30:22;95682.03;;;16.50;100.00
71457;BME280;59263;48.160;11.752;2023-09-12T02:32:47;95681.00;;;16.66;100.00
71457;BME280;59263;48.160;11.752;2023-09-12T02:35:13;95678.97;;;16.61;100.00
71457;BME280;59263;48.160;11.752;2023-09-12T02:37:38;95682.84;;;16.51;100.00
71457;BME280;59263;48.160;11.752;2023-09-12T02:40:04;95684.00;;;16.48;100.00
71457;BME280;59263;48.160;11.752;2023-09-12T02:42:33;95688.00;;;16.44;100.00
71457;BME280;59263;48.160;11.752;2023-09-12T02:44:59;95683.47;;;16.38;100.00
71457;BME280;59263;48.160;11.752;2023-09-12T02:47:24;95679.91;;;16.39;100.00
71457;BME280;59263;48.160;11.752;2023-09-12T02:49:49;95673.78;;;16.32;100.00
71457;BME280;59263;48.160;11.752;2023-09-12T02:52:14;95679.38;;;16.29;100.00
71457;BME280;59263;48.160;11.752;2023-09-12T02:54:40;95675.31;;;16.26;100.00
71457;BME280;59263;48.160;11.752;2023-09-12T02:57:05;95683.34;;;16.25;100.00
71457;BME280;59263;48.160;11.752;2023-09-12T02:59:31;95686.66;;;16.33;100.00
71457;BME280;59263;48.160;11.752;2023-09-12T03:01:56;95667.47;;;16.11;100.00
71457;BME280;59263;48.160;11.752;2023-09-12T03:04:25;95685.66;;;16.19;100.00
71457;BME280;59263;48.160;11.752;2023-09-12T03:06:50;95683.22;;;16.33;100.00
71457;BME280;59263;48.160;11.752;2023-09-12T03:09:15;95677.91;;;16.26;100.00
71457;BME280;59263;48.160;11.752;2023-09-12T03:11:42;95686.91;;;16.24;100.00
71457;BME280;59263;48.160;11.752;2023-09-12T03:14:07;95682.44;;;16.17;100.00
71457;BME280;59263;48.160;11.752;2023-09-12T03:16:33;95693.22;;;16.14;100.00
71457;BME280;59263;48.160;11.752;2023-09-12T03:18:58;95679.63;;;16.04;100.00
71457;BME280;59263;48.160;11.752;2023-09-12T03:21:25;95682.59;;;16.01;100.00
71457;BME280;59263;48.160;11.752;2023-09-12T03:23:50;95688.28;;;16.05;100.00
71457;BME280;59263;48.160;11.752;2023-09-12T03:26:16;95679.53;;;15.97;100.00
71457;BME280;59263;48.160;11.752;2023-09-12T03:28:41;95681.00;;;16.00;100.00
71457;BME280;59263;48.160;11.752;2023-09-12T03:31:11;95678.63;;;16.05;100.00
71457;BME280;59263;48.160;11.752;2023-09-12T03:33:38;95683.50;;;16.08;100.00
71457;BME280;59263;48.160;11.752;2023-09-12T03:36:04;95687.31;;;16.06;100.00
71457;BME280;59263;48.160;11.752;2023-09-12T03:38:30;95677.03;;;16.04;100.00
71457;BME280;59263;48.160;11.752;2023-09-12T03:40:55;95682.09;;;16.06;100.00
71457;BME280;59263;48.160;11.752;2023-09-12T03:43:20;95672.50;;;15.98;100.00
71457;BME280;59263;48.160;11.752;2023-09-12T03:45:46;95676.47;;;16.09;100.00
71457;BME280;59263;48.160;11.752;2023-09-12T03:48:11;95680.53;;;16.11;100.00
71457;BME280;59263;48.160;11.752;2023-09-12T03:50:36;95667.75;;;16.02;100.00
71457;BME280;59263;48.160;11.752;2023-09-12T03:53:02;95689.91;;;16.06;100.00
71457;BME280;59263;48.160;11.752;2023-09-12T03:55:27;95689.38;;;15.95;100.00
71457;BME280;59263;48.160;11.752;2023-09-12T03:57:52;95689.06;;;16.05;100.00
71457;BME280;59263;48.160;11.752;2023-09-12T04:00:18;95681.91;;;16.07;100.00
71457;BME280;59263;48.160;11.752;2023-09-12T04:02:43;95675.78;;;16.00;100.00
71457;BME280;59263;48.160;11.752;2023-09-12T04:05:08;95684.41;;;15.86;100.00
71457;BME280;59263;48.160;11.752;2023-09-12T04:07:34;95697.19;;;15.81;100.00
71457;BME280;59263;48.160;11.752;2023-09-12T04:10:00;95684.41;;;15.86;100.00
71457;BME280;59263;48.160;11.752;2023-09-12T04:12:25;95690.63;;;15.85;100.00
71457;BME280;59263;48.160;11.752;2023-09-12T04:14:50;95689.97;;;15.83;100.00
71457;BME280;59263;48.160;11.752;2023-09-12T04:17:20;95693.41;;;15.68;100.00
71457;BME280;59263;48.160;11.752;2023-09-12T04:19:45;95695.34;;;15.66;100.00
71457;BME280;59263;48.160;11.752;2023-09-12T04:22:10;95706.25;;;15.70;100.00
71457;BME280;59263;48.160;11.752;2023-09-12T04:24:35;95699.88;;;15.72;100.00
71457;BME280;59263;48.160;11.752;2023-09-12T04:27:01;95683.22;;;15.73;100.00
71457;BME280;59263;48.160;11.752;2023-09-12T04:29:26;95701.22;;;15.68;100.00
71457;BME280;59263;48.160;11.752;2023-09-12T04:31:52;95679.84;;;15.50;100.00
71457;BME280;59263;48.160;11.752;2023-09-12T04:34:24;95698.97;;;15.57;100.00
71457;BME280;59263;48.160;11.752;2023-09-12T04:36:49;95700.16;;;15.55;100.00
71457;BME280;59263;48.160;11.752;2023-09-12T04:39:14;95698.09;;;15.50;100.00
71457;BME280;59263;48.160;11.752;2023-09-12T04:41:39;95692.00;;;15.35;100.00
71457;BME280;59263;48.160;11.752;2023-09-12T04:44:05;95697.75;;;15.30;100.00
71457;BME280;59263;48.160;11.752;2023-09-12T04:46:30;95699.22;;;15.33;100.00
71457;BME280;59263;48.160;11.752;2023-09-12T04:48:55;95678.97;;;15.35;100.00
71457;BME280;59263;48.160;11.752;2023-09-12T04:51:21;95693.31;;;15.39;100.00
71457;BME280;59263;48.160;11.752;2023-09-12T04:53:46;95696.28;;;15.28;100.00
71457;BME280;59263;48.160;11.752;2023-09-12T04:56:16;95703.00;;;15.45;100.00
71457;BME280;59263;48.160;11.752;2023-09-12T04:58:41;95694.75;;;15.56;100.00
71457;BME280;59263;48.160;11.752;2023-09-12T05:01:07;95695.75;;;15.55;100.00
71457;BME280;59263;48.160;11.752;2023-09-12T05:03:32;95692.16;;;15.56;100.00
71457;BME280;59263;48.160;11.752;2023-09-12T05:05:58;95706.25;;;15.47;100.00
71457;BME280;59263;48.160;11.752;2023-09-12T05:08:24;95712.53;;;15.38;100.00
71457;BME280;59263;48.160;11.752;2023-09-12T05:10:50;95711.94;;;15.28;100.00
71457;BME280;59263;48.160;11.752;2023-09-12T05:13:15;95710.16;;;15.28;100.00
71457;BME280;59263;48.160;11.752;2023-09-12T05:15:41;95721.00;;;15.40;100.00
71457;BME280;59263;48.160;11.752;2023-09-12T05:18:07;95712.28;;;15.47;100.00
71457;BME280;59263;48.160;11.752;2023-09-12T05:20:35;95713.44;;;15.45;100.00
71457;BME280;59263;48.160;11.752;2023-09-12T05:23:00;95712.03;;;15.57;100.00
71457;BME280;59263;48.160;11.752;2023-09-12T05:25:26;95709.72;;;15.62;100.00
71457;BME280;59263;48.160;11.752;2023-09-12T05:27:55;95702.50;;;15.64;100.00
71457;BME280;59263;48.160;11.752;2023-09-12T05:30:35;95701.84;;;15.70;100.00
71457;BME280;59263;48.160;11.752;2023-09-12T05:33:01;95701.94;;;15.77;100.00
71457;BME280;59263;48.160;11.752;2023-09-12T05:35:26;95698.09;;;15.88;100.00
71457;BME280;59263;48.160;11.752;2023-09-12T05:37:52;95702.78;;;16.07;100.00
71457;BME280;59263;48.160;11.752;2023-09-12T05:40:18;95688.28;;;16.05;100.00
71457;BME280;59263;48.160;11.752;2023-09-12T05:42:43;95686.22;;;16.00;100.00
71457;BME280;59263;48.160;11.752;2023-09-12T05:45:08;95703.41;;;16.09;100.00
71457;BME280;59263;48.160;11.752;2023-09-12T05:47:34;95703.41;;;16.09;100.00
71457;BME280;59263;48.160;11.752;2023-09-12T05:49:59;95696.47;;;16.16;100.00
71457;BME280;59263;48.160;11.752;2023-09-12T05:52:25;95702.13;;;16.35;100.00
71457;BME280;59263;48.160;11.752;2023-09-12T05:54:51;95699.31;;;16.51;100.00
71457;BME280;59263;48.160;11.752;2023-09-12T05:57:16;95695.97;;;16.57;100.00
71457;BME280;59263;48.160;11.752;2023-09-12T05:59:41;95693.00;;;16.60;100.00
71457;BME280;59263;48.160;11.752;2023-09-12T06:02:07;95698.41;;;16.74;100.00
71457;BME280;59263;48.160;11.752;2023-09-12T06:04:35;95700.63;;;16.91;100.00
71457;BME280;59263;48.160;11.752;2023-09-12T06:07:03;95684.69;;;17.08;100.00
71457;BME280;59263;48.160;11.752;2023-09-12T06:09:29;95678.00;;;17.27;100.00
71457;BME280;59263;48.160;11.752;2023-09-12T06:11:54;95677.75;;;17.43;100.00
71457;BME280;59263;48.160;11.752;2023-09-12T06:14:20;95673.84;;;17.60;100.00
71457;BME280;59263;48.160;11.752;2023-09-12T06:16:45;95684.88;;;17.77;100.00
71457;BME280;59263;48.160;11.752;2023-09-12T06:19:11;95683.34;;;17.89;100.00
71457;BME280;59263;48.160;11.752;2023-09-12T06:21:36;95694.63;;;17.90;100.00
71457;BME280;59263;48.160;11.752;2023-09-12T06:24:14;95689.22;;;17.92;100.00
71457;BME280;59263;48.160;11.752;2023-09-12T06:26:40;95698.78;;;18.06;100.00
71457;BME280;59263;48.160;11.752;2023-09-12T06:29:05;95691.94;;;18.11;100.00
71457;BME280;59263;48.160;11.752;2023-09-12T06:31:31;95697.03;;;18.20;100.00
71457;BME280;59263;48.160;11.752;2023-09-12T06:33:56;95693.81;;;18.18;100.00
71457;BME280;59263;48.160;11.752;2023-09-12T06:36:23;95697.66;;;18.22;100.00
71457;BME280;59263;48.160;11.752;2023-09-12T06:38:49;95696.63;;;18.23;100.00
71457;BME280;59263;48.160;11.752;2023-09-12T06:41:14;95693.91;;;18.37;100.00
71457;BME280;59263;48.160;11.752;2023-09-12T06:43:40;95692.09;;;18.45;100.00
71457;BME280;59263;48.160;11.752;2023-09-12T06:46:05;95699.03;;;18.59;100.00
71457;BME280;59263;48.160;11.752;2023-09-12T06:48:31;95701.91;;;18.71;100.00
71457;BME280;59263;48.160;11.752;2023-09-12T06:50:57;95687.00;;;18.71;100.00
71457;BME280;59263;48.160;11.752;2023-09-12T06:53:22;95681.00;;;18.84;100.00
71457;BME280;59263;48.160;11.752;2023-09-12T06:55:47;95689.50;;;18.99;100.00
71457;BME280;59263;48.160;11.752;2023-09-12T06:58:13;95686.88;;;18.99;100.00
71457;BME280;59263;48.160;11.752;2023-09-12T07:00:38;95678.19;;;19.05;100.00
71457;BME280;59263;48.160;11.752;2023-09-12T07:03:03;95690.53;;;19.18;100.00
71457;BME280;59263;48.160;11.752;2023-09-12T07:05:29;95696.78;;;19.24;100.00
71457;BME280;59263;48.160;11.752;2023-09-12T07:07:54;95692.38;;;19.31;100.00
71457;BME280;59263;48.160;11.752;2023-09-12T07:10:19;95693.97;;;19.39;100.00
71457;BME280;59263;48.160;11.752;2023-09-12T07:12:45;95699.25;;;19.45;100.00
71457;BME280;59263;48.160;11.752;2023-09-12T07:15:10;95692.56;;;19.49;100.00
71457;BME280;59263;48.160;11.752;2023-09-12T07:17:35;95698.25;;;19.59;100.00
71457;BME280;59263;48.160;11.752;2023-09-12T07:20:01;95703.31;;;19.74;100.00
71457;BME280;59263;48.160;11.752;2023-09-12T07:22:26;95704.13;;;19.88;100.00
71457;BME280;59263;48.160;11.752;2023-09-12T07:24:52;95705.09;;;20.00;100.00
71457;BME280;59263;48.160;11.752;2023-09-12T07:27:17;95695.97;;;20.10;100.00
71457;BME280;59263;48.160;11.752;2023-09-12T07:29:42;95679.22;;;20.11;100.00
71457;BME280;59263;48.160;11.752;2023-09-12T07:32:08;95685.44;;;20.23;100.00
71457;BME280;59263;48.160;11.752;2023-09-12T07:34:33;95682.75;;;20.43;100.00
71457;BME280;59263;48.160;11.752;2023-09-12T07:36:58;95683.78;;;20.42;100.00
71457;BME280;59263;48.160;11.752;2023-09-12T07:39:23;95688.22;;;20.41;100.00
71457;BME280;59263;48.160;11.752;2023-09-12T07:41:49;95675.19;;;20.73;100.00
71457;BME280;59263;48.160;11.752;2023-09-12T07:44:14;95673.94;;;20.82;100.00
71457;BME280;59263;48.160;11.752;2023-09-12T07:46:41;95677.97;;;20.85;100.00
71457;BME280;59263;48.160;11.752;2023-09-12T07:49:06;95681.16;;;20.93;100.00
71457;BME280;59263;48.160;11.752;2023-09-12T07:51:34;95681.66;;;21.09;100.00
71457;BME280;59263;48.160;11.752;2023-09-12T07:54:00;95681.84;;;21.14;100.00
71457;BME280;59263;48.160;11.752;2023-09-12T07:56:26;95690.66;;;21.26;100.00
71457;BME280;59263;48.160;11.752;2023-09-12T07:58:51;95682.31;;;21.36;100.00
71457;BME280;59263;48.160;11.752;2023-09-12T08:01:16;95684.91;;;21.42;100.00
71457;BME280;59263;48.160;11.752;2023-09-12T08:03:42;95654.88;;;21.50;100.00
71457;BME280;59263;48.160;11.752;2023-09-12T08:06:08;95675.78;;;21.70;100.00
71457;BME280;59263;48.160;11.752;2023-09-12T08:08:34;95681.09;;;21.63;100.00
71457;BME280;59263;48.160;11.752;2023-09-12T08:11:00;95681.19;;;21.75;100.00
71457;BME280;59263;48.160;11.752;2023-09-12T08:13:29;95671.13;;;21.90;100.00
71457;BME280;59263;48.160;11.752;2023-09-12T08:15:55;95668.94;;;22.06;100.00
71457;BME280;59263;48.160;11.752;2023-09-12T08:18:21;95678.22;;;22.15;100.00
71457;BME280;59263;48.160;11.752;2023-09-12T08:20:47;95664.25;;;22.14;100.00
71457;BME280;59263;48.160;11.752;2023-09-12T08:23:12;95673.09;;;22.38;100.00
71457;BME280;59263;48.160;11.752;2023-09-12T08:25:39;95670.25;;;22.40;100.00
71457;BME280;59263;48.160;11.752;2023-09-12T08:28:04;95665.59;;;22.54;100.00
71457;BME280;59263;48.160;11.752;2023-09-12T08:30:30;95660.25;;;22.60;100.00
71457;BME280;59263;48.160;11.752;2023-09-12T08:32:55;95667.59;;;22.58;100.00
71457;BME280;59263;48.160;11.752;2023-09-12T08:35:21;95666.91;;;22.63;100.00
71457;BME280;59263;48.160;11.752;2023-09-12T08:37:46;95665.00;;;22.70;100.00
71457;BME280;59263;48.160;11.752;2023-09-12T08:40:11;95666.72;;;22.76;100.00
71457;BME280;59263;48.160;11.752;2023-09-12T08:42:44;95659.09;;;22.86;100.00
71457;BME280;59263;48.160;11.752;2023-09-12T08:45:17;95654.50;;;23.12;100.00
71457;BME280;59263;48.160;11.752;2023-09-12T08:47:44;95654.63;;;23.17;100.00
71457;BME280;59263;48.160;11.752;2023-09-12T08:50:11;95666.22;;;23.16;100.00
71457;BME280;59263;48.160;11.752;2023-09-12T08:52:38;95654.41;;;23.18;100.00
71457;BME280;59263;48.160;11.752;2023-09-12T08:55:04;95645.81;;;23.23;100.00
71457;BME280;59263;48.160;11.752;2023-09-12T08:57:32;95652.72;;;23.36;100.00
71457;BME280;59263;48.160;11.752;2023-09-12T09:00:00;95637.81;;;23.53;100.00
71457;BME280;59263;48.160;11.752;2023-09-12T09:02:27;95647.81;;;23.63;100.00
71457;BME280;59263;48.160;11.752;2023-09-12T09:04:54;95644.28;;;23.69;100.00
71457;BME280;59263;48.160;11.752;2023-09-12T09:07:20;95644.41;;;23.74;100.00
71457;BME280;59263;48.160;11.752;2023-09-12T09:09:47;95640.50;;;23.88;100.00
71457;BME280;59263;48.160;11.752;2023-09-12T09:12:13;95631.28;;;24.03;100.00
71457;BME280;59263;48.160;11.752;2023-09-12T09:14:39;95640.94;;;24.09;100.00
71457;BME280;59263;48.160;11.752;2023-09-12T09:17:04;95635.50;;;24.27;100.00
71457;BME280;59263;48.160;11.752;2023-09-12T09:19:44;95639.72;;;24.52;100.00
71457;BME280;59263;48.160;11.752;2023-09-12T09:22:10;95628.75;;;24.60;100.00
71457;BME280;59263;48.160;11.752;2023-09-12T09:24:35;95626.13;;;24.89;100.00
71457;BME280;59263;48.160;11.752;2023-09-12T09:27:01;95625.09;;;25.06;100.00
71457;BME280;59263;48.160;11.752;2023-09-12T09:29:27;95620.72;;;25.12;100.00
71457;BME280;59263;48.160;11.752;2023-09-12T09:31:57;95618.13;;;25.00;100.00
71457;BME280;59263;48.160;11.752;2023-09-12T09:34:23;95625.44;;;25.10;100.00
71457;BME280;59263;48.160;11.752;2023-09-12T09:39:15;95626.75;;;25.24;100.00
71457;BME280;59263;48.160;11.752;2023-09-12T09:41:42;95620.44;;;25.25;100.00
71457;BME280;59263;48.160;11.752;2023-09-12T09:44:08;95622.41;;;25.35;100.00
71457;BME280;59263;48.160;11.752;2023-09-12T09:46:35;95611.97;;;25.28;100.00
71457;BME280;59263;48.160;11.752;2023-09-12T09:49:02;95608.94;;;25.37;100.00
71457;BME280;59263;48.160;11.752;2023-09-12T09:51:30;95591.13;;;25.49;100.00
71457;BME280;59263;48.160;11.752;2023-09-12T09:53:56;95604.50;;;25.93;100.00
71457;BME280;59263;48.160;11.752;2023-09-12T09:56:24;95603.50;;;25.99;100.00
71457;BME280;59263;48.160;11.752;2023-09-12T09:58:53;95609.31;;;25.96;100.00
71457;BME280;59263;48.160;11.752;2023-09-12T10:03:49;95597.31;;;25.76;100.00
71457;BME280;59263;48.160;11.752;2023-09-12T10:06:16;95600.97;;;25.70;100.00
71457;BME280;59263;48.160;11.752;2023-09-12T10:08:44;95599.41;;;25.91;100.00
71457;BME280;59263;48.160;11.752;2023-09-12T10:11:14;95589.09;;;26.12;100.00
71457;BME280;59263;48.160;11.752;2023-09-12T10:13:40;95588.50;;;26.31;100.00
71457;BME280;59263;48.160;11.752;2023-09-12T10:16:09;95592.66;;;26.22;100.00
71457;BME280;59263;48.160;11.752;2023-09-12T10:18:39;95586.44;;;26.12;100.00
71457;BME280;59263;48.160;11.752;2023-09-12T10:21:15;95585.25;;;26.24;100.00
71457;BME280;59263;48.160;11.752;2023-09-12T10:23:45;95582.22;;;26.38;100.00
71457;BME280;59263;48.160;11.752;2023-09-12T10:26:13;95591.97;;;26.54;100.00
71457;BME280;59263;48.160;11.752;2023-09-12T10:28:42;95584.09;;;26.59;100.00
71457;BME280;59263;48.160;11.752;2023-09-12T10:31:09;95597.41;;;26.64;100.00
71457;BME280;59263;48.160;11.752;2023-09-12T10:33:36;95586.94;;;26.52;100.00
71457;BME280;59263;48.160;11.752;2023-09-12T10:36:06;95584.31;;;26.36;100.00
71457;BME280;59263;48.160;11.752;2023-09-12T10:38:36;95582.72;;;26.35;100.00
71457;BME280;59263;48.160;11.752;2023-09-12T10:41:05;95588.63;;;26.42;100.00
71457;BME280;59263;48.160;11.752;2023-09-12T10:43:31;95582.66;;;26.29;100.00
71457;BME280;59263;48.160;11.752;2023-09-12T10:46:01;95583.09;;;26.21;100.00
71457;BME280;59263;48.160;11.752;2023-09-12T10:48:27;95574.09;;;26.22;100.00
71457;BME280;59263;48.160;11.752;2023-09-12T10:50:56;95575.81;;;26.34;100.00
71457;BME280;59263;48.160;11.752;2023-09-12T10:53:23;95571.63;;;26.38;100.00
71457;BME280;59263;48.160;11.752;2023-09-12T10:56:18;95578.41;;;26.28;100.00
71457;BME280;59263;48.160;11.752;2023-09-12T11:01:41;95576.00;;;26.27;100.00
71457;BME280;59263;48.160;11.752;2023-09-12T11:06:48;95579.28;;;26.12;100.00
71457;BME280;59263;48.160;11.752;2023-09-12T11:11:39;95572.88;;;26.08;100.00
71457;BME280;59263;48.160;11.752;2023-09-12T11:14:05;95566.56;;;26.14;100.00
71457;BME280;59263;48.160;11.752;2023-09-12T11:16:32;95563.78;;;26.26;100.00
71457;BME280;59263;48.160;11.752;2023-09-12T11:21:53;95568.06;;;26.49;100.00
71457;BME280;59263;48.160;11.752;2023-09-12T11:24:20;95567.78;;;26.50;100.00
71457;BME280;59263;48.160;11.752;2023-09-12T11:27:02;95560.09;;;26.49;100.00
71457;BME280;59263;48.160;11.752;2023-09-12T11:29:37;95556.44;;;26.55;100.00
71457;BME280;59263;48.160;11.752;2023-09-12T11:32:04;95563.88;;;26.58;100.00
71457;BME280;59263;48.160;11.752;2023-09-12T11:34:56;95562.84;;;26.59;100.00
71457;BME280;59263;48.160;11.752;2023-09-12T11:37:26;95563.16;;;26.63;100.00
71457;BME280;59263;48.160;11.752;2023-09-12T11:39:53;95557.88;;;26.68;100.00
71457;BME280;59263;48.160;11.752;2023-09-12T11:42:19;95559.63;;;26.57;100.00
71457;BME280;59263;48.160;11.752;2023-09-12T11:44:44;95559.53;;;26.47;100.00
71457;BME280;59263;48.160;11.752;2023-09-12T11:47:10;95557.09;;;26.45;100.00
71457;BME280;59263;48.160;11.752;2023-09-12T11:49:40;95558.88;;;26.40;100.00
71457;BME280;59263;48.160;11.752;2023-09-12T11:52:13;95558.78;;;26.29;100.00
71457;BME280;59263;48.160;11.752;2023-09-12T11:54:40;95559.47;;;26.20;100.00
71457;BME280;59263;48.160;11.752;2023-09-12T11:57:10;95557.69;;;26.25;100.00
71457;BME280;59263;48.160;11.752;2023-09-12T11:59:38;95552.88;;;26.22;100.00
71457;BME280;59263;48.160;11.752;2023-09-12T12:02:09;95555.13;;;26.14;100.00
71457;BME280;59263;48.160;11.752;2023-09-12T12:04:35;95540.94;;;26.25;100.00
71457;BME280;59263;48.160;11.752;2023-09-12T12:07:02;95545.69;;;26.45;100.00
71457;BME280;59263;48.160;11.752;2023-09-12T12:09:28;95551.88;;;26.50;100.00
71457;BME280;59263;48.160;11.752;2023-09-12T12:11:53;95554.31;;;26.57;100.00
71457;BME280;59263;48.160;11.752;2023-09-12T12:14:18;95557.09;;;26.67;100.00
71457;BME280;59263;48.160;11.752;2023-09-12T12:16:45;95557.22;;;26.83;91.72
71457;BME280;59263;48.160;11.752;2023-09-12T12:19:14;95546.75;;;27.03;96.81
71457;BME280;59263;48.160;11.752;2023-09-12T12:21:40;95549.97;;;27.05;100.00
71457;BME280;59263;48.160;11.752;2023-09-12T12:24:15;95535.13;;;27.09;94.51
71457;BME280;59263;48.160;11.752;2023-09-12T12:26:42;95546.25;;;27.06;100.00
71457;BME280;59263;48.160;11.752;2023-09-12T12:29:10;95532.38;;;26.99;100.00
71457;BME280;59263;48.160;11.752;2023-09-12T12:31:37;95530.28;;;26.96;100.00
71457;BME280;59263;48.160;11.752;2023-09-12T12:34:04;95527.06;;;27.26;100.00
71457;BME280;59263;48.160;11.752;2023-09-12T12:36:29;95539.81;;;27.29;100.00
71457;BME280;59263;48.160;11.752;2023-09-12T12:38:55;95527.06;;;26.94;100.00
71457;BME280;59263;48.160;11.752;2023-09-12T12:41:25;95524.38;;;26.89;100.00
71457;BME280;59263;48.160;11.752;2023-09-12T12:43:52;95513.03;;;26.66;100.00
71457;BME280;59263;48.160;11.752;2023-09-12T12:46:18;95521.31;;;27.07;100.00
71457;BME280;59263;48.160;11.752;2023-09-12T12:48:47;95526.03;;;27.32;100.00
71457;BME280;59263;48.160;11.752;2023-09-12T12:51:16;95518.44;;;27.51;100.00
71457;BME280;59263;48.160;11.752;2023-09-12T12:53:44;95522.66;;;27.42;100.00
71457;BME280;59263;48.160;11.752;2023-09-12T12:56:14;95513.59;;;27.06;100.00
71457;BME280;59263;48.160;11.752;2023-09-12T12:58:55;95517.00;;;26.96;100.00